KBZN/BZN METAR and TAF weather

Enter ICAO airport designator
Station Type Date Time Source
KBZN METAR 2019/08/19 22:56 UTC NOAA

KBZN 192256Z 04007KT 10SM CLR 31/06 A2993 RMK AO2 SLP092 T03110056


Station Type Date Time Source
KBZN Decoded METAR 2019/08/19 22:56 UTC NOAA

BOZEMAN GALLATIN FIELD, MT, United States (KBZN) 45-47N 111-09W 1361M
Aug 19, 2019 - 06:56 PM EDT / 2019.08.19 2256 UTC
Wind: from the NE (040 degrees) at 8 MPH (7 KT):0
Visibility: 10 mile(s):0
Sky conditions: clear
Temperature: 88.0 F (31.1 C)
Dew Point: 42.1 F (5.6 C)
Relative Humidity: 20%
Pressure (altimeter): 29.93 in. Hg (1013 hPa)
ob: KBZN 192256Z 04007KT 10SM CLR 31/06 A2993 RMK AO2 SLP092 T03110056
cycle: 23

Station Type Date Time Source
KBZN TAF 2019/08/19 18:22 UTC NOAA

TAF KBZN 191720Z 1918/2024 VRB06KT P6SM SKC
FM192200 28007KT P6SM FEW060 SCT250
FM200100 VRB06KT P6SM FEW120 SCT200

Example: see airport list